Time;durP1;ratioP1;P1;durP2;ratioP2;P2;SDS_P1;SDS_P2;PMS_P1;PMS_P2;Temp;Humidity;BMP_temperature;BMP_pressure;BME280_temperature;BME280_humidity;BME280_pressure;Samples;Min_cycle;Max_cycle;Signal;HPM_P1;HPM_P2
2022/06/18 00:00:51;;;;;;;1999.90;999.90;;;;;;;;;;4898780;29;20216;-68
2022/06/18 00:03:36;;;;;;;1999.90;999.90;;;;;;;;;;4898401;29;20210;-69
2022/06/18 00:06:21;;;;;;;1999.90;999.90;;;;;;;;;;4898270;29;20202;-68
2022/06/18 00:09:06;;;;;;;1999.90;999.90;;;;;;;;;;4897740;29;20260;-68
2022/06/18 00:14:57;;;;;;;1999.90;999.90;;;;;;;;;;4898205;29;20311;-68
2022/06/18 00:17:42;;;;;;;1999.90;999.90;;;;;;;;;;4897576;29;20628;-69
2022/06/18 00:20:28;;;;;;;1999.90;999.90;;;;;;;;;;4897969;29;20214;-68
2022/06/18 00:23:14;;;;;;;1999.90;999.90;;;;;;;;;;4897675;29;20208;-68
2022/06/18 00:25:59;;;;;;;1999.90;999.90;;;;;;;;;;4897908;29;20219;-68
2022/06/18 00:28:44;;;;;;;1999.90;999.90;;;;;;;;;;4897507;29;20232;-68
2022/06/18 00:31:32;;;;;;;1999.90;999.90;;;;;;;;;;4897557;29;20210;-69
2022/06/18 00:34:17;;;;;;;1999.90;999.90;;;;;;;;;;4897283;29;20222;-69
2022/06/18 00:37:02;;;;;;;1999.90;999.90;;;;;;;;;;4897547;29;20229;-68
2022/06/18 00:39:48;;;;;;;1999.90;999.90;;;;;;;;;;4897595;29;20260;-68
2022/06/18 00:42:33;;;;;;;1999.90;999.90;;;;;;;;;;4897520;29;20255;-68
2022/06/18 00:45:21;;;;;;;1999.90;999.90;;;;;;;;;;4897227;29;20206;-69
2022/06/18 00:48:10;;;;;;;1999.90;999.90;;;;;;;;;;4896513;29;20231;-68
2022/06/18 00:50:58;;;;;;;1999.90;999.90;;;;;;;;;;4897396;29;20206;-68
2022/06/18 00:53:45;;;;;;;1999.90;999.90;;;;;;;;;;4897375;29;20250;-69
2022/06/18 00:56:33;;;;;;;1999.90;999.90;;;;;;;;;;4897244;29;20573;-68
2022/06/18 00:59:21;;;;;;;1999.90;999.90;;;;;;;;;;4896998;29;20207;-69
2022/06/18 01:02:06;;;;;;;1999.90;999.90;;;;;;;;;;4897351;29;20341;-68
2022/06/18 01:04:53;;;;;;;1999.90;999.90;;;;;;;;;;4897287;29;20251;-69
2022/06/18 01:07:38;;;;;;;1999.90;999.90;;;;;;;;;;4897064;29;20608;-68
2022/06/18 01:10:27;;;;;;;1999.90;999.90;;;;;;;;;;4897283;29;20215;-67
2022/06/18 01:13:12;;;;;;;1999.90;999.90;;;;;;;;;;4897092;29;20227;-69
2022/06/18 01:15:58;;;;;;;1999.90;999.90;;;;;;;;;;4911084;29;20753;-67
2022/06/18 01:18:43;;;;;;;1999.90;999.90;;;;;;;;;;4933044;29;20248;-68
2022/06/18 01:21:33;;;;;;;1999.90;999.90;;;;;;;;;;4924358;29;20201;-69
2022/06/18 01:24:21;;;;;;;1999.90;999.90;;;;;;;;;;4915164;29;20356;-69
2022/06/18 01:27:08;;;;;;;1999.90;999.90;;;;;;;;;;4921604;29;20446;-69
2022/06/18 01:29:54;;;;;;;1999.90;999.90;;;;;;;;;;4926180;29;20584;-67
2022/06/18 01:32:39;;;;;;;1999.90;999.90;;;;;;;;;;4921975;29;20233;-68
2022/06/18 01:35:24;;;;;;;1999.90;999.90;;;;;;;;;;4919397;29;20217;-68
2022/06/18 01:38:10;;;;;;;1999.90;999.90;;;;;;;;;;4923910;29;20367;-66
2022/06/18 01:41:49;;;;;;;1999.90;999.90;;;;;;;;;;4916393;29;20210;-68
2022/06/18 01:44:05;;;;;;;1999.90;999.90;;;;;;;;;;4896513;29;20210;-68
2022/06/18 01:46:53;;;;;;;1999.90;999.90;;;;;;;;;;4896817;29;20246;-68
2022/06/18 01:49:39;;;;;;;1999.90;999.90;;;;;;;;;;4912401;29;20816;-68
2022/06/18 01:52:29;;;;;;;1999.90;999.90;;;;;;;;;;4921743;29;20213;-68
2022/06/18 01:55:18;;;;;;;1999.90;999.90;;;;;;;;;;4934189;29;20229;-68
2022/06/18 01:58:07;;;;;;;1999.90;999.90;;;;;;;;;;4934162;29;20233;-68
2022/06/18 02:00:54;;;;;;;1999.90;999.90;;;;;;;;;;4923490;29;20283;-69
2022/06/18 02:03:39;;;;;;;1999.90;999.90;;;;;;;;;;4938044;29;20571;-69
2022/06/18 02:06:24;;;;;;;1999.90;999.90;;;;;;;;;;4938145;29;20229;-68
2022/06/18 02:09:13;;;;;;;1999.90;999.90;;;;;;;;;;4931325;29;20224;-69
2022/06/18 02:12:00;;;;;;;1999.90;999.90;;;;;;;;;;4928965;29;20422;-68
2022/06/18 02:14:49;;;;;;;1999.90;999.90;;;;;;;;;;4937835;29;20800;-68
2022/06/18 02:17:34;;;;;;;1999.90;999.90;;;;;;;;;;4937890;29;20253;-70
2022/06/18 02:20:20;;;;;;;1999.90;999.90;;;;;;;;;;4937991;29;20217;-67
2022/06/18 02:23:05;;;;;;;1999.90;999.90;;;;;;;;;;4937034;29;20220;-69
2022/06/18 02:25:51;;;;;;;1999.90;999.90;;;;;;;;;;4922883;29;20418;-68
2022/06/18 02:28:37;;;;;;;1999.90;999.90;;;;;;;;;;4937526;29;20603;-68
2022/06/18 02:31:25;;;;;;;1999.90;999.90;;;;;;;;;;4937946;29;20214;-68
2022/06/18 02:34:12;;;;;;;1999.90;999.90;;;;;;;;;;4937502;29;20222;-68
2022/06/18 02:36:59;;;;;;;1999.90;999.90;;;;;;;;;;4937419;29;20228;-69
2022/06/18 02:39:52;;;;;;;1999.90;999.90;;;;;;;;;;4937421;29;20206;-68
2022/06/18 02:42:38;;;;;;;1999.90;999.90;;;;;;;;;;4935823;29;20341;-68
2022/06/18 02:45:24;;;;;;;1999.90;999.90;;;;;;;;;;4924033;29;20342;-68
2022/06/18 02:48:11;;;;;;;1999.90;999.90;;;;;;;;;;4937093;29;20607;-68
2022/06/18 02:50:57;;;;;;;1999.90;999.90;;;;;;;;;;4937493;29;20269;-68
2022/06/18 02:53:42;;;;;;;1999.90;999.90;;;;;;;;;;4937272;29;20296;-69
2022/06/18 02:56:27;;;;;;;1999.90;999.90;;;;;;;;;;4931243;29;20446;-67
2022/06/18 02:59:12;;;;;;;1999.90;999.90;;;;;;;;;;4928458;29;20699;-69
2022/06/18 03:01:57;;;;;;;1999.90;999.90;;;;;;;;;;4937227;29;20212;-69
2022/06/18 03:04:43;;;;;;;1999.90;999.90;;;;;;;;;;4937325;29;20245;-69
2022/06/18 03:07:28;;;;;;;1999.90;999.90;;;;;;;;;;4937034;29;20229;-68
2022/06/18 03:13:18;;;;;;;1999.90;999.90;;;;;;;;;;4936592;29;20277;-68
2022/06/18 03:16:03;;;;;;;1999.90;999.90;;;;;;;;;;4937039;29;20825;-70
2022/06/18 03:18:48;;;;;;;1999.90;999.90;;;;;;;;;;4926168;29;20720;-68
2022/06/18 03:21:36;;;;;;;1999.90;999.90;;;;;;;;;;4898776;29;20211;-68
2022/06/18 03:24:21;;;;;;;1999.90;999.90;;;;;;;;;;4899040;29;20897;-69
2022/06/18 03:27:06;;;;;;;1999.90;999.90;;;;;;;;;;4898824;29;20230;-68
2022/06/18 03:29:52;;;;;;;1999.90;999.90;;;;;;;;;;4898666;29;20573;-68
2022/06/18 03:32:39;;;;;;;1999.90;999.90;;;;;;;;;;4898842;29;20564;-69
2022/06/18 03:35:23;;;;;;;1999.90;999.90;;;;;;;;;;4898485;29;20993;-68
2022/06/18 03:38:10;;;;;;;1999.90;999.90;;;;;;;;;;4918614;29;20261;-69
2022/06/18 03:40:55;;;;;;;1999.90;999.90;;;;;;;;;;4934122;29;20273;-68
2022/06/18 03:43:40;;;;;;;1999.90;999.90;;;;;;;;;;4936101;29;20208;-70
2022/06/18 03:46:25;;;;;;;1999.90;999.90;;;;;;;;;;4936525;29;20209;-68
2022/06/18 03:49:15;;;;;;;1999.90;999.90;;;;;;;;;;4936205;29;20253;-68
2022/06/18 03:52:00;;;;;;;1999.90;999.90;;;;;;;;;;4932185;29;20213;-68
2022/06/18 03:54:47;;;;;;;1999.90;999.90;;;;;;;;;;4931116;29;20438;-69
2022/06/18 03:57:31;;;;;;;1999.90;999.90;;;;;;;;;;4936231;29;20237;-68
2022/06/18 04:00:18;;;;;;;1999.90;999.90;;;;;;;;;;4936213;29;20338;-68
2022/06/18 04:03:04;;;;;;;1999.90;999.90;;;;;;;;;;4936146;29;20253;-68
2022/06/18 04:05:49;;;;;;;1999.90;999.90;;;;;;;;;;4931948;29;20206;-68
2022/06/18 04:08:34;;;;;;;1999.90;999.90;;;;;;;;;;4926377;29;20229;-68
2022/06/18 04:11:20;;;;;;;1999.90;999.90;;;;;;;;;;4917555;29;20579;-68
2022/06/18 04:14:05;;;;;;;1999.90;999.90;;;;;;;;;;4916856;29;20244;-68
2022/06/18 04:16:50;;;;;;;1999.90;999.90;;;;;;;;;;4916833;29;20593;-67
2022/06/18 04:19:35;;;;;;;1999.90;999.90;;;;;;;;;;4916582;29;20210;-69
2022/06/18 04:22:21;;;;;;;1999.90;999.90;;;;;;;;;;4916880;29;20701;-68
2022/06/18 04:25:06;;;;;;;1999.90;999.90;;;;;;;;;;4916786;29;20282;-68
2022/06/18 04:27:54;;;;;;;1999.90;999.90;;;;;;;;;;4923513;29;20309;-68
2022/06/18 04:30:39;;;;;;;1999.90;999.90;;;;;;;;;;4916714;29;20202;-68
2022/06/18 04:33:24;;;;;;;1999.90;999.90;;;;;;;;;;4916676;29;20323;-69
2022/06/18 04:36:18;;;;;;;1999.90;999.90;;;;;;;;;;4916623;29;20210;-69
2022/06/18 04:39:04;;;;;;;1999.90;999.90;;;;;;;;;;4914691;29;20420;-68
2022/06/18 04:41:49;;;;;;;1999.90;999.90;;;;;;;;;;4918293;29;20776;-67
2022/06/18 04:44:35;;;;;;;1999.90;999.90;;;;;;;;;;4904461;29;20619;-68
2022/06/18 04:47:20;;;;;;;1999.90;999.90;;;;;;;;;;4923832;29;20226;-68
2022/06/18 04:50:09;;;;;;;1999.90;999.90;;;;;;;;;;4917514;29;20210;-68
2022/06/18 04:52:54;;;;;;;1999.90;999.90;;;;;;;;;;4915774;29;20232;-66
2022/06/18 04:55:39;;;;;;;1999.90;999.90;;;;;;;;;;4915381;29;20259;-68
2022/06/18 04:58:25;;;;;;;1999.90;999.90;;;;;;;;;;4915380;29;20769;-69
2022/06/18 05:01:14;;;;;;;1999.90;999.90;;;;;;;;;;4915339;29;20207;-70
2022/06/18 05:03:59;;;;;;;1999.90;999.90;;;;;;;;;;4928769;29;20377;-69
2022/06/18 05:06:45;;;;;;;1999.90;999.90;;;;;;;;;;4933399;29;20262;-69
2022/06/18 05:09:30;;;;;;;1999.90;999.90;;;;;;;;;;4930749;29;20417;-70
2022/06/18 05:12:15;;;;;;;1999.90;999.90;;;;;;;;;;4928814;29;20279;-67
2022/06/18 05:15:00;;;;;;;1999.90;999.90;;;;;;;;;;4916384;29;20225;-70
2022/06/18 05:17:47;;;;;;;1999.90;999.90;;;;;;;;;;4913524;29;20728;-70
2022/06/18 05:20:32;;;;;;;1999.90;999.90;;;;;;;;;;4916747;29;20701;-70
2022/06/18 05:23:18;;;;;;;1999.90;999.90;;;;;;;;;;4925229;29;20563;-69
2022/06/18 05:26:03;;;;;;;1999.90;999.90;;;;;;;;;;4925793;29;20338;-70
2022/06/18 05:28:48;;;;;;;1999.90;999.90;;;;;;;;;;4912079;29;20234;-70
2022/06/18 05:31:33;;;;;;;1999.90;999.90;;;;;;;;;;4915137;29;20217;-67
2022/06/18 05:34:20;;;;;;;1999.90;999.90;;;;;;;;;;4916740;29;20248;-65
2022/06/18 05:37:05;;;;;;;1999.90;999.90;;;;;;;;;;4928064;29;20229;-70
2022/06/18 05:39:50;;;;;;;1999.90;999.90;;;;;;;;;;4922979;29;20221;-70
2022/06/18 05:42:35;;;;;;;1999.90;999.90;;;;;;;;;;4921696;29;20584;-69
2022/06/18 05:45:22;;;;;;;1999.90;999.90;;;;;;;;;;4921302;29;20685;-69
2022/06/18 05:48:07;;;;;;;1999.90;999.90;;;;;;;;;;4925108;29;20222;-68
2022/06/18 05:50:53;;;;;;;1999.90;999.90;;;;;;;;;;4929577;29;20283;-69
2022/06/18 05:53:39;;;;;;;1999.90;999.90;;;;;;;;;;4918969;29;21129;-69
2022/06/18 05:56:24;;;;;;;1999.90;999.90;;;;;;;;;;4915506;29;20321;-69
2022/06/18 05:59:10;;;;;;;1999.90;999.90;;;;;;;;;;4932678;29;20214;-69
2022/06/18 06:01:56;;;;;;;1999.90;999.90;;;;;;;;;;4929496;29;20213;-68
2022/06/18 06:04:42;;;;;;;1999.90;999.90;;;;;;;;;;4921202;29;20569;-69
2022/06/18 06:07:28;;;;;;;1999.90;999.90;;;;;;;;;;4928389;29;20233;-68
2022/06/18 06:13:22;;;;;;;1999.90;999.90;;;;;;;;;;4923356;29;20237;-68
2022/06/18 06:16:07;;;;;;;1999.90;999.90;;;;;;;;;;4931284;29;20229;-69
2022/06/18 06:18:52;;;;;;;1999.90;999.90;;;;;;;;;;4921407;29;20349;-69
2022/06/18 06:21:37;;;;;;;1999.90;999.90;;;;;;;;;;4922046;29;20298;-69
2022/06/18 06:24:23;;;;;;;1999.90;999.90;;;;;;;;;;4923521;29;20209;-68
2022/06/18 06:27:09;;;;;;;1999.90;999.90;;;;;;;;;;4927626;29;20807;-69
2022/06/18 06:29:54;;;;;;;1999.90;999.90;;;;;;;;;;4923246;29;20209;-69
2022/06/18 06:32:39;;;;;;;1999.90;999.90;;;;;;;;;;4918730;29;20575;-69
2022/06/18 06:35:24;;;;;;;1999.90;999.90;;;;;;;;;;4921335;29;20230;-69
2022/06/18 06:38:09;;;;;;;1999.90;999.90;;;;;;;;;;4920117;29;20293;-70
2022/06/18 06:40:56;;;;;;;1999.90;999.90;;;;;;;;;;4918371;29;20417;-69
2022/06/18 06:43:41;;;;;;;1999.90;999.90;;;;;;;;;;4920732;29;20210;-69
2022/06/18 06:46:26;;;;;;;1999.90;999.90;;;;;;;;;;4917893;29;20338;-69
2022/06/18 06:49:11;;;;;;;1999.90;999.90;;;;;;;;;;4916653;29;20206;-69
2022/06/18 06:51:56;;;;;;;1999.90;999.90;;;;;;;;;;4930425;29;20421;-69
2022/06/18 06:54:41;;;;;;;1999.90;999.90;;;;;;;;;;4935240;29;20293;-70
2022/06/18 06:57:27;;;;;;;1999.90;999.90;;;;;;;;;;4935476;29;20751;-70
2022/06/18 07:00:13;;;;;;;1999.90;999.90;;;;;;;;;;4931860;29;20260;-69
2022/06/18 07:02:58;;;;;;;1999.90;999.90;;;;;;;;;;4924329;29;20262;-69
2022/06/18 07:05:43;;;;;;;1999.90;999.90;;;;;;;;;;4932140;29;20218;-69
2022/06/18 07:08:29;;;;;;;1999.90;999.90;;;;;;;;;;4917606;29;20253;-69
2022/06/18 07:11:15;;;;;;;1999.90;999.90;;;;;;;;;;4918181;29;20693;-69
2022/06/18 07:14:01;;;;;;;1999.90;999.90;;;;;;;;;;4935403;29;20708;-70
2022/06/18 07:16:50;;;;;;;1999.90;999.90;;;;;;;;;;4935321;29;20611;-70
2022/06/18 07:19:35;;;;;;;1999.90;999.90;;;;;;;;;;4919494;29;20572;-70
2022/06/18 07:22:20;;;;;;;1999.90;999.90;;;;;;;;;;4916895;29;20420;-70
2022/06/18 07:25:07;;;;;;;1999.90;999.90;;;;;;;;;;4916653;29;20334;-70
2022/06/18 07:27:53;;;;;;;1999.90;999.90;;;;;;;;;;4924149;29;20226;-69
2022/06/18 07:30:39;;;;;;;1999.90;999.90;;;;;;;;;;4936629;29;20204;-69
2022/06/18 07:33:25;;;;;;;1999.90;999.90;;;;;;;;;;4918635;29;20213;-70
2022/06/18 07:36:10;;;;;;;1999.90;999.90;;;;;;;;;;4917368;29;20233;-70
2022/06/18 07:38:55;;;;;;;1999.90;999.90;;;;;;;;;;4915630;29;20895;-70
2022/06/18 07:41:41;;;;;;;1999.90;999.90;;;;;;;;;;4917423;29;20327;-70
2022/06/18 07:44:26;;;;;;;1999.90;999.90;;;;;;;;;;4917458;29;20313;-70
2022/06/18 07:47:16;;;;;;;1999.90;999.90;;;;;;;;;;4917775;29;20248;-70
2022/06/18 07:50:03;;;;;;;1999.90;999.90;;;;;;;;;;4916553;29;20584;-67
2022/06/18 07:52:48;;;;;;;1999.90;999.90;;;;;;;;;;4923958;29;20285;-69
2022/06/18 07:55:34;;;;;;;1999.90;999.90;;;;;;;;;;4916934;29;20313;-68
2022/06/18 07:58:19;;;;;;;1999.90;999.90;;;;;;;;;;4916137;29;20233;-67
2022/06/18 08:01:04;;;;;;;1999.90;999.90;;;;;;;;;;4916966;29;20213;-69
2022/06/18 08:03:51;;;;;;;1999.90;999.90;;;;;;;;;;4916862;29;20214;-69
2022/06/18 08:06:36;;;;;;;1999.90;999.90;;;;;;;;;;4914430;29;20456;-69
2022/06/18 08:09:21;;;;;;;1999.90;999.90;;;;;;;;;;4918966;29;20213;-70
2022/06/18 08:12:07;;;;;;;1999.90;999.90;;;;;;;;;;4927951;29;20301;-70
2022/06/18 08:14:52;;;;;;;1999.90;999.90;;;;;;;;;;4925538;29;20218;-70
2022/06/18 08:17:37;;;;;;;1999.90;999.90;;;;;;;;;;4919540;29;20250;-69
2022/06/18 08:20:24;;;;;;;1999.90;999.90;;;;;;;;;;4924778;29;20447;-70
2022/06/18 08:23:10;;;;;;;1999.90;999.90;;;;;;;;;;4928389;29;21510;-70
2022/06/18 08:25:55;;;;;;;1999.90;999.90;;;;;;;;;;4932956;29;20233;-69
2022/06/18 08:28:40;;;;;;;1999.90;999.90;;;;;;;;;;4926782;29;20600;-68
2022/06/18 08:31:25;;;;;;;1999.90;999.90;;;;;;;;;;4916709;29;20201;-70
2022/06/18 08:34:10;;;;;;;1999.90;999.90;;;;;;;;;;4925931;29;20240;-69
2022/06/18 08:36:57;;;;;;;1999.90;999.90;;;;;;;;;;4921325;29;20246;-69
2022/06/18 08:39:42;;;;;;;1999.90;999.90;;;;;;;;;;4916108;29;20210;-69
2022/06/18 08:42:37;;;;;;;1999.90;999.90;;;;;;;;;;4916294;29;20245;-70
2022/06/18 08:45:28;;;;;;;1999.90;999.90;;;;;;;;;;4913345;29;20577;-69
2022/06/18 08:48:19;;;;;;;1999.90;999.90;;;;;;;;;;4926734;29;20340;-69
2022/06/18 08:51:13;;;;;;;1999.90;999.90;;;;;;;;;;4935219;29;20584;-70
2022/06/18 08:54:13;;;;;;;1999.90;999.90;;;;;;;;;;4930126;29;20217;-69
2022/06/18 08:57:00;;;;;;;1999.90;999.90;;;;;;;;;;4932607;29;20763;-69
2022/06/18 08:59:50;;;;;;;1999.90;999.90;;;;;;;;;;4919232;29;20213;-70
2022/06/18 09:02:37;;;;;;;1999.90;999.90;;;;;;;;;;4914787;29;20231;-69
2022/06/18 09:05:29;;;;;;;1999.90;999.90;;;;;;;;;;4913984;29;20448;-69
2022/06/18 09:08:24;;;;;;;1999.90;999.90;;;;;;;;;;4913463;29;20225;-68
2022/06/18 09:11:18;;;;;;;1999.90;999.90;;;;;;;;;;4913547;29;20222;-69
2022/06/18 09:14:05;;;;;;;1999.90;999.90;;;;;;;;;;4922701;29;20818;-69
2022/06/18 09:16:53;;;;;;;1999.90;999.90;;;;;;;;;;4932526;29;20342;-69
2022/06/18 09:19:40;;;;;;;1999.90;999.90;;;;;;;;;;4922715;29;20298;-69
2022/06/18 09:22:26;;;;;;;1999.90;999.90;;;;;;;;;;4915303;29;20209;-68
2022/06/18 09:25:13;;;;;;;1999.90;999.90;;;;;;;;;;4914683;29;20218;-69
2022/06/18 09:28:03;;;;;;;1999.90;999.90;;;;;;;;;;4924470;29;20241;-69
2022/06/18 09:30:50;;;;;;;1999.90;999.90;;;;;;;;;;4919246;29;20558;-69
2022/06/18 09:33:43;;;;;;;1999.90;999.90;;;;;;;;;;4912932;29;20938;-69
2022/06/18 09:36:32;;;;;;;1999.90;999.90;;;;;;;;;;4915651;29;20376;-68
2022/06/18 09:39:18;;;;;;;1999.90;999.90;;;;;;;;;;4916865;29;20615;-69
2022/06/18 09:42:06;;;;;;;1999.90;999.90;;;;;;;;;;4931238;29;20262;-69
2022/06/18 09:44:55;;;;;;;1999.90;999.90;;;;;;;;;;4934682;29;20298;-69
2022/06/18 09:47:42;;;;;;;1999.90;999.90;;;;;;;;;;4918509;29;20439;-69
2022/06/18 09:50:31;;;;;;;1999.90;999.90;;;;;;;;;;4917627;29;20262;-69
2022/06/18 09:53:19;;;;;;;1999.90;999.90;;;;;;;;;;4917777;29;20210;-69
2022/06/18 09:56:07;;;;;;;1999.90;999.90;;;;;;;;;;4920289;29;20238;-70
2022/06/18 09:58:55;;;;;;;1999.90;999.90;;;;;;;;;;4925289;29;20221;-69
2022/06/18 10:01:43;;;;;;;1999.90;999.90;;;;;;;;;;4932341;29;20217;-68
2022/06/18 10:07:34;;;;;;;1999.90;999.90;;;;;;;;;;4926036;29;20257;-70
2022/06/18 10:10:21;;;;;;;1999.90;999.90;;;;;;;;;;4922174;29;20213;-70
2022/06/18 10:13:13;;;;;;;1999.90;999.90;;;;;;;;;;4917518;29;20214;-69
2022/06/18 10:16:01;;;;;;;1999.90;999.90;;;;;;;;;;4914680;29;20443;-68
2022/06/18 10:18:50;;;;;;;1999.90;999.90;;;;;;;;;;4919515;29;20837;-68
2022/06/18 10:21:39;;;;;;;1999.90;999.90;;;;;;;;;;4913385;29;20345;-70
2022/06/18 10:24:31;;;;;;;1999.90;999.90;;;;;;;;;;4915816;29;20218;-69
2022/06/18 10:27:20;;;;;;;1999.90;999.90;;;;;;;;;;4928221;29;20331;-68
2022/06/18 10:30:07;;;;;;;1999.90;999.90;;;;;;;;;;4937774;29;20293;-69
2022/06/18 10:32:56;;;;;;;1999.90;999.90;;;;;;;;;;4937606;29;20205;-68
2022/06/18 10:35:47;;;;;;;1999.90;999.90;;;;;;;;;;4937706;29;20241;-68
2022/06/18 10:38:39;;;;;;;1999.90;999.90;;;;;;;;;;4920446;29;20238;-69
2022/06/18 10:41:27;;;;;;;1999.90;999.90;;;;;;;;;;4918809;29;20346;-68
2022/06/18 10:44:16;;;;;;;1999.90;999.90;;;;;;;;;;4918722;29;20290;-70
2022/06/18 10:47:02;;;;;;;1999.90;999.90;;;;;;;;;;4918212;29;20789;-70
2022/06/18 10:49:59;;;;;;;1999.90;999.90;;;;;;;;;;4918272;29;20213;-68
2022/06/18 10:52:56;;;;;;;1999.90;999.90;;;;;;;;;;4923953;29;20209;-68
2022/06/18 10:55:42;;;;;;;1999.90;999.90;;;;;;;;;;4925329;29;20202;-68
2022/06/18 10:58:27;;;;;;;1999.90;999.90;;;;;;;;;;4921713;29;20232;-68
2022/06/18 11:01:14;;;;;;;1999.90;999.90;;;;;;;;;;4928628;29;20205;-69
2022/06/18 11:04:00;;;;;;;1999.90;999.90;;;;;;;;;;4899109;29;20214;-70
2022/06/18 11:06:45;;;;;;;1999.90;999.90;;;;;;;;;;4899287;29;20851;-70
2022/06/18 11:09:33;;;;;;;1999.90;999.90;;;;;;;;;;4899233;29;20210;-69
2022/06/18 11:12:20;;;;;;;1999.90;999.90;;;;;;;;;;4899148;29;20202;-69
2022/06/18 11:15:22;;;;;;;1999.90;999.90;;;;;;;;;;4909921;29;20372;-69
2022/06/18 11:18:15;;;;;;;1999.90;999.90;;;;;;;;;;4904121;29;20238;-69
2022/06/18 11:21:03;;;;;;;1999.90;999.90;;;;;;;;;;4900373;29;20713;-70
2022/06/18 11:23:51;;;;;;;1999.90;999.90;;;;;;;;;;4900736;29;20292;-70
2022/06/18 11:26:38;;;;;;;1999.90;999.90;;;;;;;;;;4902368;29;20213;-70
2022/06/18 11:29:27;;;;;;;1999.90;999.90;;;;;;;;;;4903951;29;20206;-69
2022/06/18 11:32:16;;;;;;;1999.90;999.90;;;;;;;;;;4901034;29;20215;-68
2022/06/18 11:35:04;;;;;;;1999.90;999.90;;;;;;;;;;4908563;29;20214;-69
2022/06/18 11:37:57;;;;;;;1999.90;999.90;;;;;;;;;;4917419;29;20242;-68
2022/06/18 11:40:50;;;;;;;1999.90;999.90;;;;;;;;;;4917681;29;20594;-68
2022/06/18 11:43:42;;;;;;;1999.90;999.90;;;;;;;;;;4917254;29;20306;-67
2022/06/18 11:46:30;;;;;;;1999.90;999.90;;;;;;;;;;4923862;29;20404;-69
2022/06/18 11:49:17;;;;;;;1999.90;999.90;;;;;;;;;;4922680;29;20999;-69
2022/06/18 11:52:04;;;;;;;1999.90;999.90;;;;;;;;;;4922088;29;20274;-68
2022/06/18 11:54:53;;;;;;;1999.90;999.90;;;;;;;;;;4917090;29;20210;-69
2022/06/18 11:57:41;;;;;;;1999.90;999.90;;;;;;;;;;4916728;29;20347;-71
2022/06/18 12:00:30;;;;;;;1999.90;999.90;;;;;;;;;;4916297;29;20427;-68
2022/06/18 12:03:21;;;;;;;1999.90;999.90;;;;;;;;;;4917766;29;20233;-68
2022/06/18 12:06:10;;;;;;;1999.90;999.90;;;;;;;;;;4912870;29;20209;-69
2022/06/18 12:08:56;;;;;;;1999.90;999.90;;;;;;;;;;4909832;29;20339;-68
2022/06/18 12:11:48;;;;;;;1999.90;999.90;;;;;;;;;;4904277;29;22117;-68
2022/06/18 12:14:34;;;;;;;1999.90;999.90;;;;;;;;;;4897625;29;20227;-68
2022/06/18 12:17:23;;;;;;;1999.90;999.90;;;;;;;;;;4913216;29;20316;-68
2022/06/18 12:20:13;;;;;;;1999.90;999.90;;;;;;;;;;4900422;29;22209;-68
2022/06/18 12:23:01;;;;;;;1999.90;999.90;;;;;;;;;;4901634;29;20214;-68
2022/06/18 12:25:52;;;;;;;1999.90;999.90;;;;;;;;;;4913657;29;20214;-69
2022/06/18 12:28:41;;;;;;;1999.90;999.90;;;;;;;;;;4926369;29;20228;-68
2022/06/18 12:31:30;;;;;;;1999.90;999.90;;;;;;;;;;4926494;29;20337;-69
2022/06/18 12:34:22;;;;;;;1999.90;999.90;;;;;;;;;;4917353;29;20625;-69
2022/06/18 12:37:13;;;;;;;1999.90;999.90;;;;;;;;;;4921069;29;20241;-70
2022/06/18 12:40:03;;;;;;;1999.90;999.90;;;;;;;;;;4927725;29;20209;-70
2022/06/18 12:42:52;;;;;;;1999.90;999.90;;;;;;;;;;4920289;29;20673;-70
2022/06/18 12:45:43;;;;;;;1999.90;999.90;;;;;;;;;;4897921;29;20444;-70
2022/06/18 12:48:32;;;;;;;1999.90;999.90;;;;;;;;;;4925493;29;20226;-69
2022/06/18 12:51:24;;;;;;;1999.90;999.90;;;;;;;;;;4916619;29;20206;-70
2022/06/18 12:54:30;;;;;;;1999.90;999.90;;;;;;;;;;4926704;29;20275;-69
2022/06/18 12:57:19;;;;;;;1999.90;999.90;;;;;;;;;;4921669;29;20271;-69
2022/06/18 13:00:07;;;;;;;1999.90;999.90;;;;;;;;;;4913454;29;20209;-71
2022/06/18 13:03:12;;;;;;;1999.90;999.90;;;;;;;;;;4927844;29;20209;-69
2022/06/18 13:06:00;;;;;;;1999.90;999.90;;;;;;;;;;4931998;29;20326;-67
2022/06/18 13:08:53;;;;;;;1999.90;999.90;;;;;;;;;;4925706;29;20290;-69
2022/06/18 13:11:42;;;;;;;1999.90;999.90;;;;;;;;;;4921067;29;20203;-71
2022/06/18 13:14:34;;;;;;;1999.90;999.90;;;;;;;;;;4932282;29;20636;-69
2022/06/18 13:17:22;;;;;;;1999.90;999.90;;;;;;;;;;4940206;28;20652;-70
2022/06/18 13:20:10;;;;;;;1999.90;999.90;;;;;;;;;;4938705;28;20270;-70
2022/06/18 13:22:55;;;;;;;1999.90;999.90;;;;;;;;;;4924261;28;20278;-70
2022/06/18 13:28:48;;;;;;;1999.90;999.90;;;;;;;;;;4929617;29;20292;-67
2022/06/18 13:31:39;;;;;;;1999.90;999.90;;;;;;;;;;4916552;29;20456;-69
2022/06/18 13:34:30;;;;;;;1999.90;999.90;;;;;;;;;;4915580;29;20388;-68
2022/06/18 13:37:20;;;;;;;1999.90;999.90;;;;;;;;;;4923536;29;20228;-68
2022/06/18 13:40:09;;;;;;;1999.90;999.90;;;;;;;;;;4924102;29;22140;-68
2022/06/18 13:43:00;;;;;;;1999.90;999.90;;;;;;;;;;4920063;29;20767;-69
2022/06/18 13:45:49;;;;;;;1999.90;999.90;;;;;;;;;;4917587;29;20205;-68
2022/06/18 13:48:46;;;;;;;1999.90;999.90;;;;;;;;;;4923656;29;20230;-67
2022/06/18 13:51:32;;;;;;;1999.90;999.90;;;;;;;;;;4896367;29;20215;-67
2022/06/18 13:54:17;;;;;;;1999.90;999.90;;;;;;;;;;4911902;29;20221;-68
2022/06/18 13:57:04;;;;;;;1999.90;999.90;;;;;;;;;;4920707;29;20287;-68
2022/06/18 13:59:52;;;;;;;1999.90;999.90;;;;;;;;;;4931724;29;20217;-68
2022/06/18 14:02:39;;;;;;;1999.90;999.90;;;;;;;;;;4941284;29;20214;-68
2022/06/18 14:05:35;;;;;;;1999.90;999.90;;;;;;;;;;4943205;29;20276;-68
2022/06/18 14:08:28;;;;;;;1999.90;999.90;;;;;;;;;;4927839;29;20603;-68
2022/06/18 14:11:13;;;;;;;1999.90;999.90;;;;;;;;;;4927474;29;20209;-66
2022/06/18 14:13:59;;;;;;;1999.90;999.90;;;;;;;;;;4932416;29;20338;-67
2022/06/18 14:16:58;;;;;;;1999.90;999.90;;;;;;;;;;4924288;29;20470;-69
2022/06/18 14:19:56;;;;;;;1999.90;999.90;;;;;;;;;;4928643;29;20217;-68
2022/06/18 14:22:41;;;;;;;1999.90;999.90;;;;;;;;;;4918094;29;20210;-67
2022/06/18 14:25:26;;;;;;;1999.90;999.90;;;;;;;;;;4932624;29;20305;-68
2022/06/18 14:28:20;;;;;;;1999.90;999.90;;;;;;;;;;4932299;29;20234;-68
2022/06/18 14:31:29;;;;;;;1999.90;999.90;;;;;;;;;;4927015;29;20216;-69
2022/06/18 14:34:21;;;;;;;1999.90;999.90;;;;;;;;;;4938327;29;20588;-68
2022/06/18 14:37:08;;;;;;;1999.90;999.90;;;;;;;;;;4927114;29;20361;-68
2022/06/18 14:39:56;;;;;;;1999.90;999.90;;;;;;;;;;4928229;29;20210;-68
2022/06/18 14:42:50;;;;;;;1999.90;999.90;;;;;;;;;;4933569;29;20214;-71
2022/06/18 14:45:37;;;;;;;1999.90;999.90;;;;;;;;;;4927284;29;20587;-69
2022/06/18 14:48:50;;;;;;;1999.90;999.90;;;;;;;;;;4906254;29;20233;-68
2022/06/18 14:51:45;;;;;;;1999.90;999.90;;;;;;;;;;4932761;29;20271;-69
2022/06/18 14:54:44;;;;;;;1999.90;999.90;;;;;;;;;;4927272;29;20210;-68
2022/06/18 14:57:42;;;;;;;1999.90;999.90;;;;;;;;;;4918908;29;20601;-68
2022/06/18 15:00:39;;;;;;;1999.90;999.90;;;;;;;;;;4916621;29;20759;-68
2022/06/18 15:03:26;;;;;;;1999.90;999.90;;;;;;;;;;4917422;29;20619;-69
2022/06/18 15:06:12;;;;;;;1999.90;999.90;;;;;;;;;;4919643;29;20214;-68
2022/06/18 15:09:00;;;;;;;1999.90;999.90;;;;;;;;;;4936218;29;20715;-68
2022/06/18 15:11:47;;;;;;;1999.90;999.90;;;;;;;;;;4937257;29;20214;-68
2022/06/18 15:14:33;;;;;;;1999.90;999.90;;;;;;;;;;4920488;29;20234;-69
2022/06/18 15:17:30;;;;;;;1999.90;999.90;;;;;;;;;;4921735;29;20245;-68
2022/06/18 15:20:31;;;;;;;1999.90;999.90;;;;;;;;;;4935189;29;20224;-68
2022/06/18 15:23:29;;;;;;;1999.90;999.90;;;;;;;;;;4935027;29;20230;-68
2022/06/18 15:26:18;;;;;;;1999.90;999.90;;;;;;;;;;4931775;29;20220;-68
2022/06/18 15:29:04;;;;;;;1999.90;999.90;;;;;;;;;;4938175;29;20287;-68
2022/06/18 15:32:02;;;;;;;1999.90;999.90;;;;;;;;;;4931996;29;20254;-68
2022/06/18 15:34:58;;;;;;;1999.90;999.90;;;;;;;;;;4922001;29;20207;-68
2022/06/18 15:37:46;;;;;;;1999.90;999.90;;;;;;;;;;4918658;29;20861;-68
2022/06/18 15:40:33;;;;;;;1999.90;999.90;;;;;;;;;;4920622;29;20295;-67
2022/06/18 15:43:21;;;;;;;1999.90;999.90;;;;;;;;;;4928540;29;20285;-67
2022/06/18 15:46:07;;;;;;;1999.90;999.90;;;;;;;;;;4937291;29;20209;-68
2022/06/18 15:48:54;;;;;;;1999.90;999.90;;;;;;;;;;4928268;29;20313;-69
2022/06/18 15:51:39;;;;;;;1999.90;999.90;;;;;;;;;;4920918;29;20206;-68